createdAt,value
2018-04-30T00:02:17.669Z,95306.36
2018-04-30T00:04:45.879Z,95316.73
2018-04-30T00:07:14.035Z,95311.00
2018-04-30T00:09:42.201Z,95302.11
2018-04-30T00:12:10.358Z,95310.46
2018-04-30T00:14:38.524Z,95307.27
2018-04-30T00:17:06.711Z,95310.92
2018-04-30T00:19:34.862Z,95307.55
2018-04-30T00:22:03.105Z,95303.43
2018-04-30T00:24:31.259Z,95302.67
2018-04-30T00:26:59.439Z,95302.70
2018-04-30T00:29:27.618Z,95309.56
2018-04-30T00:31:55.808Z,95295.51
2018-04-30T00:34:23.947Z,95297.34
2018-04-30T00:36:52.097Z,95295.33
2018-04-30T00:39:20.273Z,95290.43
2018-04-30T00:41:48.420Z,95291.30
2018-04-30T00:44:16.566Z,95283.61
2018-04-30T00:46:44.740Z,95285.97
2018-04-30T00:49:12.904Z,95279.84
2018-04-30T00:51:41.058Z,95278.48
2018-04-30T00:54:10.364Z,95286.54
2018-04-30T00:56:42.240Z,95288.17
2018-04-30T00:59:17.950Z,95287.25
2018-04-30T01:01:52.707Z,95285.54
2018-04-30T01:04:20.889Z,95282.91
2018-04-30T01:06:49.042Z,95279.31
2018-04-30T01:09:23.276Z,95283.08
2018-04-30T01:11:51.445Z,95285.72
2018-04-30T01:14:19.608Z,95283.02
2018-04-30T01:16:47.800Z,95281.50
2018-04-30T01:19:15.942Z,95282.97
2018-04-30T01:21:44.155Z,95273.38
2018-04-30T01:24:12.307Z,95270.20
2018-04-30T01:26:40.489Z,95283.53
2018-04-30T01:29:08.658Z,95269.58
2018-04-30T01:31:36.829Z,95265.48
2018-04-30T01:34:04.983Z,95260.58
2018-04-30T01:36:39.120Z,95261.95
2018-04-30T01:39:07.275Z,95270.63
2018-04-30T01:41:35.468Z,95266.26
2018-04-30T01:44:03.632Z,95252.91
2018-04-30T01:46:41.627Z,95250.23
2018-04-30T01:49:09.790Z,95270.53
2018-04-30T01:51:37.958Z,95276.11
2018-04-30T01:54:06.150Z,95272.25
2018-04-30T01:56:34.339Z,95264.84
2018-04-30T01:59:02.501Z,95256.91
2018-04-30T02:01:30.683Z,95260.49
2018-04-30T02:03:59.578Z,95254.28
2018-04-30T02:06:27.751Z,95264.62
2018-04-30T02:08:55.905Z,95263.50
2018-04-30T02:11:24.076Z,95272.23
2018-04-30T02:13:53.047Z,95262.94
2018-04-30T02:16:23.031Z,95263.15
2018-04-30T02:18:51.198Z,95262.45
2018-04-30T02:21:19.394Z,95262.52
2018-04-30T02:23:47.552Z,95263.59
2018-04-30T02:26:18.857Z,95250.45
2018-04-30T02:28:47.029Z,95246.66
2018-04-30T02:31:15.178Z,95245.89
2018-04-30T02:33:53.149Z,95245.55
2018-04-30T02:36:21.296Z,95232.19
2018-04-30T02:38:49.471Z,95244.56
2018-04-30T02:41:17.623Z,95245.91
2018-04-30T02:43:45.773Z,95243.84
2018-04-30T02:46:13.941Z,95245.16
2018-04-30T02:48:42.100Z,95251.22
2018-04-30T02:51:10.227Z,95257.33
2018-04-30T02:53:38.391Z,95260.03
2018-04-30T02:56:06.552Z,95260.69
2018-04-30T02:58:34.693Z,95259.30
2018-04-30T03:01:02.875Z,95256.73
2018-04-30T03:03:31.064Z,95268.48
2018-04-30T03:05:59.245Z,95263.91
2018-04-30T03:08:27.385Z,95272.45
2018-04-30T03:11:02.158Z,95281.45
2018-04-30T03:13:30.280Z,95280.38
2018-04-30T03:15:58.499Z,95272.77
2018-04-30T03:18:26.670Z,95265.59
2018-04-30T03:20:55.555Z,95283.09
2018-04-30T03:23:23.734Z,95281.50
2018-04-30T03:25:51.895Z,95290.88
2018-04-30T03:28:20.073Z,95292.59
2018-04-30T03:30:48.221Z,95297.59
2018-04-30T03:33:22.841Z,95311.89
2018-04-30T03:35:51.012Z,95323.63
2018-04-30T03:38:19.145Z,95385.00
2018-04-30T03:40:47.343Z,95384.97
2018-04-30T03:43:15.489Z,95381.45
2018-04-30T03:45:43.663Z,95374.41
2018-04-30T03:48:11.801Z,95380.41
2018-04-30T03:50:40.030Z,95377.38
2018-04-30T03:53:16.480Z,95384.97
2018-04-30T03:55:44.637Z,95400.41
2018-04-30T03:58:12.778Z,95408.38
2018-04-30T04:00:52.775Z,95419.77
2018-04-30T04:03:33.318Z,95423.17
2018-04-30T04:06:21.703Z,95420.19
2018-04-30T04:08:49.899Z,95430.33
2018-04-30T04:11:18.080Z,95445.87
2018-04-30T04:13:46.218Z,95469.81
2018-04-30T04:16:29.051Z,95485.23
2018-04-30T04:18:57.766Z,95519.36
2018-04-30T04:21:25.931Z,95555.64
2018-04-30T04:23:54.229Z,95568.98
2018-04-30T04:26:22.379Z,95585.05
2018-04-30T04:28:50.650Z,95600.09
2018-04-30T04:31:33.537Z,95612.80
2018-04-30T04:34:01.703Z,95609.37
2018-04-30T04:36:29.849Z,95619.31
2018-04-30T04:38:58.024Z,95633.94
2018-04-30T04:41:26.168Z,95646.16
2018-04-30T04:43:56.010Z,95650.90
2018-04-30T04:46:24.182Z,95645.86
2018-04-30T04:48:52.353Z,95662.64
2018-04-30T04:51:24.293Z,95685.09
2018-04-30T04:53:52.459Z,95686.44
2018-04-30T04:56:20.592Z,95700.34
2018-04-30T04:58:48.747Z,95702.00
2018-04-30T05:01:16.912Z,95706.11
2018-04-30T05:03:48.213Z,95726.34
2018-04-30T05:06:16.405Z,95732.75
2018-04-30T05:08:44.677Z,95755.63
2018-04-30T05:11:12.848Z,95776.22
2018-04-30T05:13:40.986Z,95788.20
2018-04-30T05:16:10.112Z,95793.64
2018-04-30T05:18:38.318Z,95786.41
2018-04-30T05:21:10.215Z,95793.64
2018-04-30T05:23:38.383Z,95801.36
2018-04-30T05:26:12.895Z,95799.13
2018-04-30T05:28:41.099Z,95811.06
2018-04-30T05:31:09.255Z,95812.07
2018-04-30T05:33:37.421Z,95831.70
2018-04-30T05:36:05.611Z,95842.70
2018-04-30T05:38:39.772Z,95858.03
2018-04-30T05:41:07.898Z,95869.86
2018-04-30T05:43:36.054Z,95864.33
2018-04-30T05:46:04.263Z,95878.66
2018-04-30T05:48:32.391Z,95868.44
2018-04-30T05:51:00.532Z,95876.24
2018-04-30T05:53:28.697Z,95907.40
2018-04-30T05:55:56.844Z,95903.22
2018-04-30T05:58:25.012Z,95917.48
2018-04-30T06:00:53.164Z,95925.66
2018-04-30T06:03:21.327Z,95931.80
2018-04-30T06:05:49.473Z,95920.53
2018-04-30T06:08:17.633Z,95932.79
2018-04-30T06:10:45.787Z,95946.46
2018-04-30T06:13:33.618Z,95956.80
2018-04-30T06:16:01.764Z,95968.13
2018-04-30T06:18:29.939Z,95972.72
2018-04-30T06:20:58.102Z,95981.00
2018-04-30T06:23:26.314Z,95974.05
2018-04-30T06:25:54.491Z,95978.33
2018-04-30T06:28:22.642Z,95976.08
2018-04-30T06:30:50.832Z,95995.28
2018-04-30T06:33:18.997Z,95977.60
2018-04-30T06:35:47.207Z,95975.16
2018-04-30T06:38:15.312Z,95984.09
2018-04-30T06:40:43.461Z,95998.50
2018-04-30T06:43:12.899Z,95986.77
2018-04-30T06:45:41.182Z,96002.96
2018-04-30T06:48:09.383Z,95992.63
2018-04-30T06:50:52.349Z,95991.96
2018-04-30T06:53:20.526Z,96003.06
2018-04-30T06:55:48.678Z,95994.05
2018-04-30T06:58:16.841Z,96014.98
2018-04-30T07:00:45.021Z,96018.80
2018-04-30T07:03:13.166Z,96023.39
2018-04-30T07:05:41.363Z,96020.33
2018-04-30T07:08:17.308Z,96010.05
2018-04-30T07:10:45.484Z,95999.92
2018-04-30T07:13:13.652Z,96001.52
2018-04-30T07:15:41.818Z,95998.09
2018-04-30T07:18:20.447Z,95993.55
2018-04-30T07:20:48.648Z,96004.95
2018-04-30T07:23:18.429Z,96018.12
2018-04-30T07:25:46.550Z,96019.83
2018-04-30T07:28:14.720Z,96042.45
2018-04-30T07:30:42.873Z,96026.33
2018-04-30T07:33:11.130Z,96026.66
2018-04-30T07:35:39.980Z,96036.80
2018-04-30T07:38:08.137Z,96034.28
2018-04-30T07:40:36.284Z,96031.66
2018-04-30T07:43:04.421Z,96042.71
2018-04-30T07:45:33.010Z,96043.59
2018-04-30T07:48:01.148Z,96040.02
2018-04-30T07:50:29.307Z,96031.16
2018-04-30T08:02:29.392Z,96009.43
2018-04-30T08:04:57.574Z,96007.14
2018-04-30T08:07:25.718Z,96001.06
2018-04-30T08:09:53.996Z,96001.30
2018-04-30T08:12:22.195Z,95993.80
2018-04-30T08:14:50.343Z,95997.48
2018-04-30T08:17:18.506Z,96004.14
2018-04-30T10:05:49.852Z,96043.17
2018-04-30T10:08:18.025Z,96041.58
2018-04-30T10:10:46.217Z,96043.41
2018-04-30T10:13:14.424Z,96043.67
2018-04-30T10:15:42.638Z,96036.64
2018-04-30T10:18:11.106Z,96032.69
2018-04-30T10:33:21.027Z,96025.25
2018-04-30T10:35:50.799Z,96016.02
2018-04-30T10:38:19.697Z,96020.36
2018-04-30T10:40:47.843Z,96018.55
2018-04-30T10:43:17.230Z,96016.34
2018-04-30T10:45:45.452Z,96014.82
2018-04-30T10:48:13.563Z,96007.03
2018-04-30T10:50:41.745Z,96011.02
2018-04-30T10:53:13.582Z,96003.03
2018-04-30T10:55:41.729Z,96007.42
2018-04-30T10:58:10.365Z,96000.41
2018-04-30T11:00:38.537Z,95992.23
2018-04-30T11:03:06.687Z,95990.75
2018-04-30T11:05:41.153Z,95993.86
2018-04-30T11:08:09.312Z,95985.09
2018-04-30T11:10:37.439Z,95985.96
2018-04-30T11:13:05.606Z,95985.16
2018-04-30T11:15:33.734Z,95990.29
2018-04-30T11:18:08.317Z,95991.69
2018-04-30T11:20:36.472Z,95991.53
2018-04-30T11:23:04.708Z,95993.40
2018-04-30T11:25:32.885Z,95986.63
2018-04-30T11:28:01.346Z,95987.61
2018-04-30T11:30:29.508Z,95977.14
2018-04-30T11:32:57.662Z,95978.91
2018-04-30T11:35:31.703Z,95975.66
2018-04-30T11:37:59.868Z,95981.42
2018-04-30T11:40:34.475Z,95975.34
2018-04-30T11:43:02.634Z,95971.60
2018-04-30T11:45:30.837Z,95977.23
2018-04-30T11:47:58.988Z,95974.42
2018-04-30T11:50:27.170Z,95987.97
2018-04-30T11:52:55.357Z,95983.34
2018-04-30T11:55:23.556Z,95989.50
2018-04-30T11:57:51.732Z,95981.25
2018-04-30T12:00:19.888Z,95983.31
2018-04-30T12:02:48.052Z,95980.14
2018-04-30T12:05:16.208Z,95988.27
2018-04-30T12:07:44.353Z,95984.87
2018-04-30T12:10:15.633Z,95985.39
2018-04-30T12:12:43.796Z,95971.80
2018-04-30T12:15:12.464Z,95973.31
2018-04-30T12:17:40.607Z,95971.97
2018-04-30T12:20:08.801Z,95968.92
2018-04-30T12:22:49.708Z,95972.55
2018-04-30T12:25:17.904Z,95980.61
2018-04-30T12:27:46.056Z,95978.62
2018-04-30T12:30:14.348Z,95976.72
2018-04-30T12:32:43.426Z,95975.81
2018-04-30T12:35:24.919Z,95972.65
2018-04-30T12:37:53.080Z,95962.77
2018-04-30T12:40:21.223Z,95963.12
2018-04-30T12:42:49.386Z,95958.72
2018-04-30T12:45:27.818Z,95961.59
2018-04-30T12:47:55.988Z,95958.84
2018-04-30T12:50:24.143Z,95953.58
2018-04-30T12:52:52.318Z,95952.17
2018-04-30T12:55:20.502Z,95950.50
2018-04-30T12:57:48.695Z,95953.52
2018-04-30T13:00:16.868Z,95952.64
2018-04-30T13:02:45.483Z,95950.01
2018-04-30T13:05:13.676Z,95947.48
2018-04-30T13:07:41.839Z,95942.68
2018-04-30T13:10:13.095Z,95943.56
2018-04-30T13:12:44.424Z,95936.92
2018-04-30T13:15:12.635Z,95943.27
2018-04-30T13:17:40.776Z,95935.97
2018-04-30T13:20:22.765Z,95924.75
2018-04-30T13:22:50.912Z,95928.33
2018-04-30T13:25:19.064Z,95926.53
2018-04-30T13:27:47.673Z,95935.31
2018-04-30T13:30:15.857Z,95926.91
2018-04-30T13:32:44.043Z,95920.79
2018-04-30T13:35:15.417Z,95917.22
2018-04-30T13:37:43.585Z,95913.05
2018-04-30T13:40:11.737Z,95908.86
2018-04-30T13:42:39.875Z,95908.94
2018-04-30T13:45:08.036Z,95905.43
2018-04-30T13:47:36.198Z,95898.83
2018-04-30T13:50:04.369Z,95899.72
2018-04-30T13:52:32.515Z,95902.73
2018-04-30T13:55:00.690Z,95898.22
2018-04-30T13:57:28.827Z,95894.88
2018-04-30T13:59:57.028Z,95901.00
2018-04-30T14:02:31.421Z,95893.88
2018-04-30T14:04:59.650Z,95894.75
2018-04-30T14:07:27.811Z,95892.92
2018-04-30T14:09:55.971Z,95899.55
2018-04-30T14:12:30.393Z,95899.78
2018-04-30T14:14:58.555Z,95895.93
2018-04-30T14:17:29.713Z,95900.22
2018-04-30T14:19:57.847Z,95902.20
2018-04-30T14:22:26.041Z,95897.46
2018-04-30T14:24:54.189Z,95900.08
2018-04-30T14:27:22.359Z,95896.05
2018-04-30T14:29:50.517Z,95903.69
2018-04-30T14:32:18.683Z,95897.06
2018-04-30T14:34:46.848Z,95901.00
2018-04-30T14:37:15.005Z,95902.34
2018-04-30T14:39:43.177Z,95901.60
2018-04-30T14:42:11.307Z,95898.05
2018-04-30T14:44:39.524Z,95899.34
2018-04-30T14:47:07.678Z,95891.75
2018-04-30T14:49:35.835Z,95885.34
2018-04-30T14:52:03.990Z,95886.63
2018-04-30T14:54:32.145Z,95882.70
2018-04-30T14:57:00.311Z,95891.57
2018-04-30T14:59:28.455Z,95875.73
2018-04-30T15:01:56.627Z,95873.23
2018-04-30T15:04:24.827Z,95876.68
2018-04-30T15:06:56.173Z,95874.27
2018-04-30T15:09:24.329Z,95876.22
2018-04-30T15:11:52.482Z,95877.86
2018-04-30T15:14:22.297Z,95877.91
2018-04-30T15:16:50.435Z,95877.09
2018-04-30T15:19:18.636Z,95874.20
2018-04-30T15:21:46.787Z,95878.67
2018-04-30T15:24:28.686Z,95879.02
2018-04-30T15:26:56.849Z,95884.54
2018-04-30T15:29:35.228Z,95885.75
2018-04-30T15:32:03.397Z,95874.78
2018-04-30T15:34:35.252Z,95875.33
2018-04-30T15:37:03.421Z,95873.88
2018-04-30T15:39:31.554Z,95872.18
2018-04-30T15:41:59.771Z,95871.19
2018-04-30T15:44:40.566Z,95873.68
2018-04-30T15:47:08.642Z,95862.53
2018-04-30T15:49:36.793Z,95867.72
2018-04-30T15:52:04.973Z,95868.84
2018-04-30T15:54:33.131Z,95870.91
2018-04-30T15:57:13.929Z,95861.56
2018-04-30T15:59:48.286Z,95857.80
2018-04-30T16:02:16.453Z,95863.88
2018-04-30T16:04:44.601Z,95854.97
2018-04-30T16:07:13.026Z,95855.33
2018-04-30T16:09:41.158Z,95866.80
2018-04-30T16:12:09.314Z,95864.14
2018-04-30T16:14:37.500Z,95859.42
2018-04-30T16:17:05.654Z,95868.17
2018-04-30T16:19:33.795Z,95878.58
2018-04-30T16:22:01.985Z,95876.42
2018-04-30T16:24:30.155Z,95878.70
2018-04-30T16:26:58.295Z,95874.73
2018-04-30T16:29:26.452Z,95869.97
2018-04-30T16:31:54.598Z,95863.09
2018-04-30T16:34:25.522Z,95866.52
2018-04-30T16:36:53.660Z,95865.45
2018-04-30T16:39:21.812Z,95867.66
2018-04-30T16:41:49.986Z,95867.30
2018-04-30T16:44:27.838Z,95871.81
2018-04-30T16:46:56.004Z,95875.92
2018-04-30T16:49:24.150Z,95875.05
2018-04-30T16:51:52.326Z,95871.84
2018-04-30T16:54:20.482Z,95871.00
2018-04-30T16:56:48.638Z,95881.89
2018-04-30T16:59:16.780Z,95879.85
2018-04-30T17:01:44.930Z,95885.72
2018-04-30T17:04:13.126Z,95889.70
2018-04-30T17:06:41.266Z,95886.20
2018-04-30T17:09:09.460Z,95882.77
2018-04-30T17:11:38.503Z,95880.98
2018-04-30T17:14:06.667Z,95877.86
2018-04-30T17:16:34.826Z,95886.61
2018-04-30T17:19:02.984Z,95891.99
2018-04-30T17:21:31.149Z,95882.00
2018-04-30T17:24:01.924Z,95882.25
2018-04-30T17:26:32.491Z,95893.16
2018-04-30T17:29:00.630Z,95891.67
2018-04-30T17:31:28.811Z,95891.67
2018-04-30T17:33:59.049Z,95895.48
2018-04-30T17:36:27.248Z,95900.50
2018-04-30T17:38:55.378Z,95907.02
2018-04-30T17:41:23.532Z,95906.52
2018-04-30T17:43:51.688Z,95910.37
2018-04-30T17:46:19.835Z,95913.43
2018-04-30T17:48:47.985Z,95916.45
2018-04-30T17:51:16.156Z,95921.80
2018-04-30T17:53:44.339Z,95920.66
2018-04-30T17:56:12.472Z,95920.02
2018-04-30T17:58:40.722Z,95921.51
2018-04-30T18:03:41.980Z,95934.41
2018-04-30T18:06:10.903Z,95933.49
2018-04-30T18:08:39.054Z,95938.30
2018-04-30T18:11:08.066Z,95946.19
2018-04-30T18:13:36.195Z,95952.94
2018-04-30T18:16:04.400Z,95970.84
2018-04-30T18:18:32.578Z,95970.38
2018-04-30T18:21:00.742Z,95963.52
2018-04-30T18:23:28.891Z,95960.74
2018-04-30T18:25:57.063Z,95983.38
2018-04-30T18:28:29.341Z,95984.61
2018-04-30T18:30:58.804Z,95984.28
2018-04-30T18:33:26.967Z,95986.77
2018-04-30T18:35:55.114Z,95992.91
2018-04-30T18:38:23.289Z,96001.91
2018-04-30T18:40:51.433Z,95998.81
2018-04-30T18:43:19.604Z,96003.23
2018-04-30T18:45:47.787Z,96005.36
2018-04-30T18:48:15.953Z,96015.98
2018-04-30T18:50:44.129Z,96018.24
2018-04-30T18:53:12.550Z,96020.89
2018-04-30T18:55:40.712Z,96037.03
2018-04-30T18:58:08.851Z,96042.19
2018-04-30T19:00:37.072Z,96046.44
2018-04-30T19:03:05.223Z,96051.03
2018-04-30T19:05:33.409Z,96060.53
2018-04-30T19:08:01.715Z,96074.80
2018-04-30T19:10:37.394Z,96088.02
2018-04-30T19:13:05.609Z,96090.95
2018-04-30T19:15:33.732Z,96093.81
2018-04-30T19:18:01.958Z,96110.70
2018-04-30T19:20:30.102Z,96109.39
2018-04-30T19:22:58.286Z,96116.92
2018-04-30T19:25:26.430Z,96119.13
2018-04-30T19:27:54.737Z,96119.52
2018-04-30T19:30:22.903Z,96125.56
2018-04-30T19:32:51.064Z,96136.30
2018-04-30T19:35:19.236Z,96135.64
2018-04-30T19:37:47.386Z,96141.98
2018-04-30T19:40:16.966Z,96157.39
2018-04-30T19:42:45.136Z,96151.32
2018-04-30T19:45:20.343Z,96152.67
2018-04-30T19:47:48.469Z,96158.63
2018-04-30T19:50:19.761Z,96163.25
2018-04-30T19:52:47.917Z,96173.00
2018-04-30T19:55:16.098Z,96168.46
2018-04-30T19:57:44.244Z,96177.41
2018-04-30T20:00:12.425Z,96186.66
2018-04-30T20:02:40.576Z,96182.02
2018-04-30T20:05:08.745Z,96178.15
2018-04-30T20:07:36.934Z,96168.07
2018-04-30T20:10:05.087Z,96173.65
2018-04-30T20:12:33.262Z,96167.76
2018-04-30T20:15:01.415Z,96171.77
2018-04-30T20:17:29.635Z,96175.14
2018-04-30T20:19:57.786Z,96182.30
2018-04-30T20:22:25.967Z,96190.46
2018-04-30T20:24:55.279Z,96203.05
2018-04-30T20:27:23.420Z,96197.22
2018-04-30T20:29:51.669Z,96195.36
2018-04-30T20:32:19.810Z,96202.78
2018-04-30T20:34:48.028Z,96195.09
2018-04-30T20:37:19.966Z,96196.70
2018-04-30T20:39:48.168Z,96194.11
2018-04-30T20:42:19.808Z,96194.93
2018-04-30T20:44:47.953Z,96201.41
2018-04-30T20:47:16.186Z,96211.23
2018-04-30T20:49:44.392Z,96213.32
2018-04-30T20:52:12.550Z,96217.21
2018-04-30T20:54:40.705Z,96212.02
2018-04-30T20:57:08.855Z,96214.08
2018-04-30T20:59:36.996Z,96222.52
2018-04-30T21:02:05.173Z,96221.64
2018-04-30T21:04:33.313Z,96217.32
2018-04-30T21:07:01.505Z,96215.19
2018-04-30T21:09:29.648Z,96223.34
2018-04-30T21:11:57.780Z,96228.09
2018-04-30T21:14:25.970Z,96231.09
2018-04-30T21:16:54.143Z,96234.53
2018-04-30T21:19:22.307Z,96238.42
2018-04-30T21:21:50.462Z,96241.58
2018-04-30T21:24:19.807Z,96246.09
2018-04-30T21:26:47.890Z,96250.77
2018-04-30T21:29:17.103Z,96248.14
2018-04-30T21:31:45.236Z,96248.53
2018-04-30T21:34:13.401Z,96248.90
2018-04-30T21:36:41.571Z,96238.27
2018-04-30T21:39:09.716Z,96259.53
2018-04-30T21:41:43.810Z,96251.91
2018-04-30T21:44:11.947Z,96246.02
2018-04-30T21:46:40.207Z,96249.05
2018-04-30T21:49:08.353Z,96248.77
2018-04-30T21:51:38.328Z,96249.23
2018-04-30T21:54:06.500Z,96259.52
2018-04-30T21:56:34.647Z,96264.25
2018-04-30T21:59:02.815Z,96263.97
2018-04-30T22:01:30.947Z,96279.28
2018-04-30T22:03:59.140Z,96285.28
2018-04-30T22:06:27.275Z,96284.94
2018-04-30T22:08:55.454Z,96282.84
2018-04-30T22:11:23.596Z,96284.91
2018-04-30T22:13:53.596Z,96288.31
2018-04-30T22:16:21.778Z,96299.39
2018-04-30T22:18:53.769Z,96304.09
2018-04-30T22:21:21.939Z,96300.23
2018-04-30T22:23:50.101Z,96287.98
2018-04-30T22:26:18.357Z,96291.44
2018-04-30T22:28:46.499Z,96294.47
2018-04-30T22:31:14.683Z,96290.66
2018-04-30T22:33:42.962Z,96293.13
2018-04-30T22:36:11.121Z,96299.92
2018-04-30T22:38:39.290Z,96298.70
2018-04-30T22:41:07.416Z,96307.58
2018-04-30T22:43:35.578Z,96304.61
2018-04-30T22:46:03.728Z,96307.20
2018-04-30T22:48:32.294Z,96303.42
2018-04-30T22:51:00.449Z,96303.05
2018-04-30T22:53:28.615Z,96304.31
2018-04-30T22:55:56.771Z,96313.66
2018-04-30T22:58:24.925Z,96317.95
2018-04-30T23:00:53.101Z,96320.11
2018-04-30T23:03:21.237Z,96327.30
2018-04-30T23:05:49.428Z,96326.50
2018-04-30T23:08:17.574Z,96327.38
2018-04-30T23:10:45.761Z,96329.59
2018-04-30T23:13:13.919Z,96338.50
2018-04-30T23:15:42.070Z,96337.65
2018-04-30T23:18:10.263Z,96339.34
2018-04-30T23:23:16.890Z,96338.05
2018-04-30T23:25:45.038Z,96340.98
2018-04-30T23:28:13.206Z,96345.23
2018-04-30T23:30:41.360Z,96337.98
2018-04-30T23:33:12.875Z,96352.41
2018-04-30T23:35:41.046Z,96358.83
2018-04-30T23:38:09.197Z,96360.63
2018-04-30T23:40:37.365Z,96362.42
2018-04-30T23:43:05.532Z,96361.09
2018-04-30T23:45:33.706Z,96364.51
2018-04-30T23:48:01.866Z,96358.56
2018-04-30T23:50:30.004Z,96361.48
2018-04-30T23:52:59.116Z,96358.09
2018-04-30T23:55:27.308Z,96362.32
2018-04-30T23:57:58.430Z,96361.89
